createdAt,value
2022-12-07T00:00:51.710Z,20.96
2022-12-07T00:03:18.072Z,20.97
2022-12-07T00:05:44.777Z,20.97
2022-12-07T00:08:11.151Z,20.97
2022-12-07T00:10:37.537Z,20.98
2022-12-07T00:13:03.840Z,21.01
2022-12-07T00:15:30.162Z,20.99
2022-12-07T00:17:56.481Z,21.00
2022-12-07T00:20:22.833Z,20.99
2022-12-07T00:22:49.152Z,20.99
2022-12-07T00:25:15.463Z,20.98
2022-12-07T00:27:41.789Z,20.97
2022-12-07T00:30:08.301Z,20.97
2022-12-07T00:32:34.618Z,20.98
2022-12-07T00:35:00.988Z,20.96
2022-12-07T00:37:27.326Z,20.96
2022-12-07T00:39:53.669Z,20.94
2022-12-07T00:42:19.986Z,20.93
2022-12-07T00:44:46.304Z,20.94
2022-12-07T00:47:12.622Z,20.95
2022-12-07T00:49:38.939Z,20.97
2022-12-07T00:52:05.245Z,20.99
2022-12-07T00:54:31.555Z,20.98
2022-12-07T00:56:57.868Z,20.99
2022-12-07T00:59:24.179Z,20.97
2022-12-07T01:01:50.538Z,20.97
2022-12-07T01:04:16.891Z,20.96
2022-12-07T01:06:43.227Z,20.96
2022-12-07T01:09:09.542Z,20.94
2022-12-07T01:11:35.865Z,20.95
2022-12-07T01:14:02.187Z,20.93
2022-12-07T01:16:28.955Z,20.91
2022-12-07T01:18:55.456Z,20.92
2022-12-07T01:21:22.649Z,20.90
2022-12-07T01:23:48.967Z,20.90
2022-12-07T01:26:16.620Z,20.91
2022-12-07T01:28:42.931Z,20.90
2022-12-07T01:31:19.026Z,20.91
2022-12-07T01:33:46.045Z,20.92
2022-12-07T01:36:17.107Z,20.93
2022-12-07T01:38:43.684Z,20.93
2022-12-07T01:41:09.992Z,20.93
2022-12-07T01:43:36.305Z,20.93
2022-12-07T01:46:03.140Z,20.92
2022-12-07T01:48:33.966Z,20.91
2022-12-07T01:51:01.849Z,20.90
2022-12-07T01:53:29.164Z,20.89
2022-12-07T01:55:55.545Z,20.90
2022-12-07T01:58:21.863Z,20.87
2022-12-07T02:00:48.197Z,20.87
2022-12-07T02:03:22.203Z,20.87
2022-12-07T02:05:48.659Z,20.87
2022-12-07T02:08:15.083Z,20.86
2022-12-07T02:10:41.533Z,20.86
2022-12-07T02:13:10.374Z,20.87
2022-12-07T02:15:48.345Z,20.88
2022-12-07T02:18:17.175Z,20.90
2022-12-07T02:20:58.498Z,20.89
2022-12-07T02:23:32.019Z,20.89
2022-12-07T02:26:01.924Z,20.88
2022-12-07T02:28:29.624Z,20.88
2022-12-07T02:30:56.177Z,20.87
2022-12-07T02:33:26.913Z,20.86
2022-12-07T02:35:57.842Z,20.87
2022-12-07T02:38:27.815Z,20.84
2022-12-07T02:40:54.615Z,20.84
2022-12-07T02:43:24.085Z,20.83
2022-12-07T02:45:50.949Z,20.83
2022-12-07T02:48:17.350Z,20.84
2022-12-07T02:50:48.934Z,20.83
2022-12-07T02:53:33.870Z,20.85
2022-12-07T02:56:04.265Z,20.85
2022-12-07T02:58:33.694Z,20.85
2022-12-07T03:01:04.518Z,20.87
2022-12-07T03:03:30.853Z,20.85
2022-12-07T03:06:01.803Z,20.85
2022-12-07T03:08:43.399Z,20.85
2022-12-07T03:11:10.537Z,20.84
2022-12-07T03:13:40.839Z,20.84
2022-12-07T03:16:09.836Z,20.83
2022-12-07T03:18:39.914Z,20.82
2022-12-07T03:21:07.592Z,20.82
2022-12-07T03:23:34.202Z,20.80
2022-12-07T03:26:01.123Z,20.81
2022-12-07T03:28:28.613Z,20.80
2022-12-07T03:30:57.123Z,20.82
2022-12-07T03:33:29.346Z,20.81
2022-12-07T03:35:55.586Z,20.82
2022-12-07T03:38:23.405Z,20.82
2022-12-07T03:41:02.625Z,20.81
2022-12-07T03:43:31.711Z,20.81
2022-12-07T03:46:01.848Z,20.82
2022-12-07T03:48:36.362Z,20.84
2022-12-07T03:51:09.492Z,20.85
2022-12-07T03:53:37.111Z,20.86
2022-12-07T03:56:03.473Z,20.86
2022-12-07T03:58:29.791Z,20.87
2022-12-07T04:00:56.121Z,20.88
2022-12-07T04:03:22.497Z,20.88
2022-12-07T04:05:48.884Z,20.87
2022-12-07T04:08:15.244Z,20.90
2022-12-07T04:10:41.629Z,20.90
2022-12-07T04:13:07.962Z,20.89
2022-12-07T04:15:34.327Z,20.89
2022-12-07T04:18:00.652Z,20.88
2022-12-07T04:20:26.971Z,20.89
2022-12-07T04:22:53.277Z,20.89
2022-12-07T04:25:19.595Z,20.87
2022-12-07T04:27:45.905Z,20.87
2022-12-07T04:30:12.341Z,20.88
2022-12-07T04:32:38.675Z,20.88
2022-12-07T04:35:05.189Z,20.89
2022-12-07T04:37:31.498Z,20.87
2022-12-07T04:39:57.819Z,20.88
2022-12-07T04:42:24.153Z,20.86
2022-12-07T04:44:50.476Z,20.87
2022-12-07T04:47:16.837Z,20.88
2022-12-07T04:49:43.209Z,20.86
2022-12-07T04:52:09.519Z,20.87
2022-12-07T04:54:35.829Z,20.88
2022-12-07T04:57:02.173Z,20.89
2022-12-07T04:59:28.498Z,20.88
2022-12-07T05:01:54.867Z,20.89
2022-12-07T05:04:21.242Z,20.90
2022-12-07T05:06:47.578Z,20.91
2022-12-07T05:09:13.918Z,20.92
2022-12-07T05:11:40.416Z,20.92
2022-12-07T05:14:13.757Z,20.91
2022-12-07T05:16:40.246Z,20.92
2022-12-07T05:19:06.616Z,20.91
2022-12-07T05:21:32.938Z,20.91
2022-12-07T05:23:59.288Z,20.90
2022-12-07T05:26:25.997Z,20.90
2022-12-07T05:28:52.775Z,20.91
2022-12-07T05:31:19.219Z,20.90
2022-12-07T05:33:45.561Z,20.90
2022-12-07T05:36:11.869Z,20.90
2022-12-07T05:38:38.212Z,20.91
2022-12-07T05:41:04.832Z,20.89
2022-12-07T05:43:31.164Z,20.88
2022-12-07T05:45:57.544Z,20.87
2022-12-07T05:48:23.919Z,20.89
2022-12-07T05:50:50.351Z,20.88
2022-12-07T05:53:22.668Z,20.89
2022-12-07T05:55:49.468Z,20.90
2022-12-07T05:58:34.569Z,20.91
2022-12-07T06:01:00.907Z,20.87
2022-12-07T06:03:27.269Z,21.00
2022-12-07T06:05:53.848Z,21.01
2022-12-07T06:08:20.209Z,21.05
2022-12-07T06:10:47.399Z,21.08
2022-12-07T06:13:13.716Z,21.06
2022-12-07T06:15:40.050Z,21.10
2022-12-07T06:18:06.361Z,21.11
2022-12-07T06:20:32.724Z,21.14
2022-12-07T06:22:59.043Z,21.33
2022-12-07T06:25:25.434Z,21.36
2022-12-07T06:27:51.765Z,21.33
2022-12-07T06:30:18.097Z,21.34
2022-12-07T06:32:44.420Z,21.37
2022-12-07T06:35:10.765Z,21.43
2022-12-07T06:37:39.937Z,21.40
2022-12-07T06:40:06.648Z,21.47
2022-12-07T06:42:32.994Z,21.46
2022-12-07T06:44:59.350Z,21.47
2022-12-07T06:47:39.999Z,21.52
2022-12-07T06:50:08.558Z,21.58
2022-12-07T06:52:34.938Z,21.56
2022-12-07T06:55:01.296Z,21.53
2022-12-07T06:57:27.650Z,21.46
2022-12-07T06:59:53.980Z,21.34
2022-12-07T07:02:20.381Z,20.68
2022-12-07T07:04:46.726Z,20.93
2022-12-07T07:07:13.056Z,21.06
2022-12-07T07:09:39.371Z,21.13
2022-12-07T07:12:05.695Z,21.11
2022-12-07T07:14:32.013Z,20.96
2022-12-07T07:16:58.386Z,20.92
2022-12-07T07:19:24.720Z,21.15
2022-12-07T07:21:51.051Z,21.40
2022-12-07T07:24:17.651Z,21.34
2022-12-07T07:26:43.997Z,21.31
2022-12-07T07:29:10.319Z,21.52
2022-12-07T07:31:38.062Z,21.46
2022-12-07T07:34:04.389Z,21.46
2022-12-07T07:36:30.716Z,21.56
2022-12-07T07:38:57.030Z,21.42
2022-12-07T07:41:23.356Z,21.56
2022-12-07T07:43:49.717Z,21.67
2022-12-07T07:46:16.140Z,21.83
2022-12-07T07:48:42.513Z,21.66
2022-12-07T07:51:08.918Z,21.76
2022-12-07T07:53:35.274Z,21.90
2022-12-07T07:56:01.621Z,21.99
2022-12-07T07:58:27.984Z,21.79
2022-12-07T08:00:54.316Z,21.65
2022-12-07T08:03:20.765Z,21.84
2022-12-07T08:05:47.114Z,21.33
2022-12-07T08:08:13.449Z,21.23
2022-12-07T08:10:39.817Z,21.01
2022-12-07T08:13:12.034Z,21.11
2022-12-07T08:15:38.782Z,21.28
2022-12-07T08:18:05.189Z,21.31
2022-12-07T08:20:31.739Z,21.32
2022-12-07T08:22:58.052Z,21.33
2022-12-07T08:25:24.413Z,21.34
2022-12-07T08:27:50.733Z,21.34
2022-12-07T08:30:17.063Z,21.36
2022-12-07T08:32:44.777Z,21.37
2022-12-07T08:35:11.126Z,21.36
2022-12-07T08:37:37.480Z,21.36
2022-12-07T08:40:04.718Z,21.37
2022-12-07T08:42:38.551Z,21.33
2022-12-07T08:45:06.189Z,21.34
2022-12-07T08:47:32.521Z,21.36
2022-12-07T08:50:04.401Z,21.33
2022-12-07T08:52:31.521Z,21.33
2022-12-07T08:54:57.841Z,21.30
2022-12-07T08:57:24.200Z,21.31
2022-12-07T08:59:50.554Z,21.49
2022-12-07T09:02:16.873Z,21.48
2022-12-07T09:04:43.240Z,21.52
2022-12-07T09:07:09.715Z,21.43
2022-12-07T09:09:36.092Z,21.40
2022-12-07T09:12:02.407Z,21.36
2022-12-07T09:14:28.719Z,21.36
2022-12-07T09:16:55.160Z,21.59
2022-12-07T09:19:21.541Z,21.70
2022-12-07T09:21:47.866Z,21.60
2022-12-07T09:24:14.223Z,21.73
2022-12-07T09:26:41.373Z,21.79
2022-12-07T09:29:07.740Z,21.82
2022-12-07T09:31:34.147Z,21.83
2022-12-07T09:34:00.948Z,21.70
2022-12-07T09:36:27.461Z,21.73
2022-12-07T09:38:53.777Z,21.63
2022-12-07T09:41:20.233Z,21.63
2022-12-07T09:43:47.860Z,21.65
2022-12-07T09:46:14.844Z,21.61
2022-12-07T09:48:41.547Z,21.47
2022-12-07T09:51:25.431Z,21.56
2022-12-07T09:53:52.676Z,21.61
2022-12-07T09:56:19.042Z,21.58
2022-12-07T09:58:45.392Z,21.85
2022-12-07T10:01:14.148Z,21.97
2022-12-07T10:03:41.322Z,21.83
2022-12-07T10:06:07.646Z,21.72
2022-12-07T10:08:34.140Z,21.98
2022-12-07T10:11:11.387Z,22.03
2022-12-07T10:13:41.196Z,22.01
2022-12-07T10:16:08.145Z,22.08
2022-12-07T10:18:42.237Z,22.04
2022-12-07T10:21:11.336Z,22.05
2022-12-07T10:23:38.416Z,22.10
2022-12-07T10:26:20.889Z,22.07
2022-12-07T10:28:47.720Z,22.10
2022-12-07T10:31:18.060Z,21.97
2022-12-07T10:33:48.127Z,21.93
2022-12-07T10:36:25.338Z,21.82
2022-12-07T10:38:52.953Z,21.98
2022-12-07T10:41:20.060Z,22.12
2022-12-07T10:43:49.738Z,22.24
2022-12-07T10:46:21.740Z,22.25
2022-12-07T10:48:52.018Z,22.23
2022-12-07T10:51:39.155Z,22.08
2022-12-07T10:54:22.271Z,22.15
2022-12-07T10:56:54.601Z,22.25
2022-12-07T10:59:39.136Z,22.07
2022-12-07T11:02:24.445Z,22.08
2022-12-07T11:04:50.728Z,21.97
2022-12-07T11:07:23.999Z,21.83
2022-12-07T11:10:08.321Z,21.79
2022-12-07T11:12:52.529Z,21.81
2022-12-07T11:15:38.922Z,21.79
2022-12-07T11:18:25.445Z,21.79
2022-12-07T11:20:54.153Z,21.69
2022-12-07T11:23:29.366Z,21.68
2022-12-07T11:25:58.758Z,21.71
2022-12-07T11:28:43.816Z,21.69
2022-12-07T11:31:10.102Z,21.83
2022-12-07T11:33:39.173Z,21.92
2022-12-07T11:36:45.555Z,21.96
2022-12-07T11:39:23.943Z,21.90
2022-12-07T11:41:57.744Z,21.97
2022-12-07T11:44:42.833Z,21.95
2022-12-07T11:47:17.742Z,21.93
2022-12-07T11:49:45.372Z,22.01
2022-12-07T11:52:18.346Z,22.02
2022-12-07T11:54:44.715Z,21.94
2022-12-07T11:57:18.482Z,21.94
2022-12-07T11:59:47.048Z,21.93
2022-12-07T12:02:13.713Z,21.89
2022-12-07T12:04:45.013Z,21.87
2022-12-07T12:10:06.445Z,21.84
2022-12-07T12:15:28.547Z,21.96
2022-12-07T12:18:01.464Z,21.85
2022-12-07T12:20:29.365Z,21.83
2022-12-07T12:23:08.782Z,21.59
2022-12-07T12:25:40.857Z,21.69
2022-12-07T12:28:07.198Z,21.51
2022-12-07T12:30:37.595Z,21.73
2022-12-07T12:33:04.643Z,22.09
2022-12-07T12:35:39.790Z,22.18
2022-12-07T12:38:24.802Z,22.11
2022-12-07T12:40:51.444Z,21.98
2022-12-07T12:43:36.289Z,21.74
2022-12-07T12:46:22.877Z,21.87
2022-12-07T12:48:49.225Z,21.95
2022-12-07T12:51:36.369Z,21.97
2022-12-07T12:54:06.073Z,21.99
2022-12-07T12:56:52.490Z,21.99
2022-12-07T12:59:27.656Z,21.99
2022-12-07T13:02:12.956Z,22.00
2022-12-07T13:04:40.699Z,22.00
2022-12-07T13:07:10.628Z,22.02
2022-12-07T13:09:37.359Z,21.97
2022-12-07T13:12:04.910Z,22.00
2022-12-07T13:14:51.432Z,22.01
2022-12-07T13:17:33.112Z,22.03
2022-12-07T13:20:00.260Z,21.98
2022-12-07T13:22:32.709Z,21.59
2022-12-07T13:25:00.857Z,21.83
2022-12-07T13:27:27.749Z,21.78
2022-12-07T13:29:54.626Z,21.98
2022-12-07T13:32:28.502Z,22.09
2022-12-07T13:34:54.865Z,22.16
2022-12-07T13:37:28.012Z,22.16
2022-12-07T13:39:58.141Z,22.17
2022-12-07T13:42:34.482Z,22.18
2022-12-07T13:45:02.389Z,22.23
2022-12-07T13:47:42.823Z,22.21
2022-12-07T13:50:28.311Z,22.22
2022-12-07T13:53:00.844Z,22.04
2022-12-07T13:55:27.261Z,21.62
2022-12-07T13:57:53.797Z,21.84
2022-12-07T14:00:29.562Z,22.03
2022-12-07T14:02:57.134Z,22.05
2022-12-07T14:05:27.457Z,22.07
2022-12-07T14:07:55.857Z,22.12
2022-12-07T14:10:26.346Z,22.11
2022-12-07T14:12:52.680Z,22.16
2022-12-07T14:15:20.960Z,22.24
2022-12-07T14:17:53.516Z,22.29
2022-12-07T14:20:29.968Z,22.26
2022-12-07T14:22:56.296Z,22.27
2022-12-07T14:25:27.402Z,22.29
2022-12-07T14:27:56.454Z,22.24
2022-12-07T14:30:23.166Z,22.21
2022-12-07T14:32:51.800Z,22.21
2022-12-07T14:35:18.346Z,22.10
2022-12-07T14:37:45.865Z,22.07
2022-12-07T14:40:19.915Z,21.95
2022-12-07T14:42:46.695Z,21.94
2022-12-07T14:45:14.762Z,21.92
2022-12-07T14:50:27.621Z,21.90
2022-12-07T14:55:43.648Z,21.88
2022-12-07T14:58:16.120Z,21.87
2022-12-07T15:00:42.468Z,21.84
2022-12-07T15:03:08.843Z,21.84
2022-12-07T15:05:35.320Z,21.82
2022-12-07T15:08:01.721Z,21.85
2022-12-07T15:10:32.716Z,21.85
2022-12-07T15:13:19.347Z,21.87
2022-12-07T15:15:45.763Z,21.83
2022-12-07T15:18:12.170Z,21.82
2022-12-07T15:20:38.506Z,21.82
2022-12-07T15:23:04.812Z,21.95
2022-12-07T15:25:31.117Z,21.97
2022-12-07T15:27:57.425Z,21.97
2022-12-07T15:30:23.746Z,22.07
2022-12-07T15:32:53.167Z,22.30
2022-12-07T15:35:19.707Z,22.44
2022-12-07T15:37:46.017Z,22.40
2022-12-07T15:40:12.658Z,22.46
2022-12-07T15:42:39.012Z,22.50
2022-12-07T15:45:06.371Z,22.50
2022-12-07T15:47:34.811Z,22.52
2022-12-07T15:50:07.518Z,22.47
2022-12-07T15:52:33.945Z,22.54
2022-12-07T15:55:06.460Z,22.48
2022-12-07T15:57:32.983Z,22.51
2022-12-07T15:59:59.306Z,22.46
2022-12-07T16:02:25.807Z,22.44
2022-12-07T16:04:52.398Z,22.43
2022-12-07T16:07:19.409Z,22.44
2022-12-07T16:09:52.033Z,21.83
2022-12-07T16:12:19.295Z,21.92
2022-12-07T16:14:45.615Z,22.02
2022-12-07T16:17:11.927Z,22.10
2022-12-07T16:19:38.308Z,22.16
2022-12-07T16:22:05.051Z,22.16
2022-12-07T16:24:31.522Z,22.14
2022-12-07T16:26:57.853Z,22.21
2022-12-07T16:29:24.206Z,22.12
2022-12-07T16:31:50.575Z,22.10
2022-12-07T16:34:16.932Z,22.00
2022-12-07T16:39:29.572Z,21.23
2022-12-07T16:41:55.889Z,21.52
2022-12-07T16:44:22.223Z,21.62
2022-12-07T16:46:48.626Z,21.67
2022-12-07T16:49:17.423Z,21.71
2022-12-07T16:51:43.994Z,21.72
2022-12-07T16:54:10.748Z,21.74
2022-12-07T16:56:37.080Z,21.75
2022-12-07T16:59:03.391Z,21.74
2022-12-07T17:01:30.356Z,21.75
2022-12-07T17:03:57.102Z,21.78
2022-12-07T17:06:24.132Z,21.77
2022-12-07T17:08:50.506Z,21.74
2022-12-07T17:11:26.621Z,21.73
2022-12-07T17:14:11.505Z,21.73
2022-12-07T17:16:38.196Z,21.69
2022-12-07T17:19:05.445Z,21.70
2022-12-07T17:21:31.761Z,21.67
2022-12-07T17:23:59.263Z,21.65
2022-12-07T17:26:28.374Z,21.65
2022-12-07T17:28:58.411Z,21.66
2022-12-07T17:31:24.873Z,21.67
2022-12-07T17:33:51.304Z,21.67
2022-12-07T17:36:18.505Z,21.66
2022-12-07T17:38:44.829Z,21.67
2022-12-07T17:41:34.900Z,21.65
2022-12-07T17:44:05.887Z,21.65
2022-12-07T17:46:32.946Z,21.64
2022-12-07T17:48:59.315Z,21.62
2022-12-07T17:51:44.493Z,21.60
2022-12-07T17:54:10.952Z,21.60
2022-12-07T17:56:37.278Z,21.60
2022-12-07T17:59:03.784Z,21.60
2022-12-07T18:01:34.632Z,21.59
2022-12-07T18:04:01.506Z,21.60
2022-12-07T18:06:27.828Z,21.61
2022-12-07T18:08:54.153Z,21.62
2022-12-07T18:11:20.477Z,21.62
2022-12-07T18:13:46.790Z,21.61
2022-12-07T18:16:14.227Z,21.60
2022-12-07T18:18:40.958Z,21.61
2022-12-07T18:21:16.099Z,21.59
2022-12-07T18:23:42.762Z,21.56
2022-12-07T18:26:09.095Z,21.55
2022-12-07T18:28:35.414Z,21.57
2022-12-07T18:31:17.009Z,21.57
2022-12-07T18:33:43.555Z,21.57
2022-12-07T18:36:09.982Z,21.54
2022-12-07T18:38:36.543Z,21.56
2022-12-07T18:41:02.884Z,21.55
2022-12-07T18:43:29.220Z,21.57
2022-12-07T18:45:56.335Z,21.58
2022-12-07T18:48:22.954Z,21.57
2022-12-07T18:50:59.143Z,21.55
2022-12-07T18:53:25.513Z,21.54
2022-12-07T18:55:51.867Z,21.50
2022-12-07T18:58:18.237Z,21.50
2022-12-07T19:00:44.559Z,21.50
2022-12-07T19:03:10.932Z,21.52
2022-12-07T19:05:37.250Z,21.53
2022-12-07T19:08:04.828Z,21.53
2022-12-07T19:10:31.240Z,21.54
2022-12-07T19:12:57.614Z,21.52
2022-12-07T19:15:23.961Z,21.53
2022-12-07T19:17:50.279Z,21.53
2022-12-07T19:20:16.661Z,21.52
2022-12-07T19:22:42.992Z,21.55
2022-12-07T19:25:09.337Z,21.53
2022-12-07T19:27:35.696Z,21.44
2022-12-07T19:30:02.039Z,21.54
2022-12-07T19:32:28.535Z,21.52
2022-12-07T19:34:56.127Z,21.57
2022-12-07T19:37:22.515Z,21.53
2022-12-07T19:39:51.667Z,21.57
2022-12-07T19:42:18.052Z,21.61
2022-12-07T19:44:44.377Z,21.56
2022-12-07T19:47:10.735Z,21.54
2022-12-07T19:49:37.108Z,21.64
2022-12-07T19:52:04.422Z,21.67
2022-12-07T19:54:31.265Z,21.69
2022-12-07T19:56:57.577Z,21.66
2022-12-07T19:59:24.530Z,21.66
2022-12-07T20:01:51.058Z,21.63
2022-12-07T20:04:19.645Z,21.60
2022-12-07T20:06:46.260Z,21.47
2022-12-07T20:09:12.583Z,21.54
2022-12-07T20:11:57.508Z,21.57
2022-12-07T20:14:23.833Z,21.55
2022-12-07T20:16:50.364Z,21.58
2022-12-07T20:19:16.745Z,21.56
2022-12-07T20:21:43.326Z,21.55
2022-12-07T20:24:19.351Z,21.54
2022-12-07T20:26:45.945Z,21.53
2022-12-07T20:29:17.911Z,21.42
2022-12-07T20:31:44.877Z,21.45
2022-12-07T20:34:11.260Z,21.48
2022-12-07T20:36:37.585Z,21.49
2022-12-07T20:39:04.026Z,21.50
2022-12-07T20:41:48.920Z,21.51
2022-12-07T20:44:15.264Z,21.51
2022-12-07T20:46:41.662Z,21.50
2022-12-07T20:49:08.260Z,21.50
2022-12-07T20:51:34.641Z,21.51
2022-12-07T20:54:00.975Z,21.50
2022-12-07T20:56:28.468Z,21.50
2022-12-07T20:58:55.220Z,21.47
2022-12-07T21:01:21.829Z,21.47
2022-12-07T21:03:48.258Z,21.47
2022-12-07T21:06:17.984Z,21.46
2022-12-07T21:08:45.310Z,21.46
2022-12-07T21:11:11.732Z,21.45
2022-12-07T21:13:38.107Z,21.45
2022-12-07T21:16:11.019Z,21.46
2022-12-07T21:18:38.288Z,21.45
2022-12-07T21:21:05.800Z,21.44
2022-12-07T21:23:32.212Z,21.42
2022-12-07T21:25:58.535Z,21.41
2022-12-07T21:28:24.883Z,21.40
2022-12-07T21:31:12.732Z,21.41
2022-12-07T21:33:39.241Z,21.41
2022-12-07T21:36:06.119Z,21.41
2022-12-07T21:38:32.524Z,21.40
2022-12-07T21:40:58.864Z,21.42
2022-12-07T21:43:25.268Z,21.44
2022-12-07T21:45:51.698Z,21.44
2022-12-07T21:48:18.026Z,21.43
2022-12-07T21:50:44.408Z,21.42
2022-12-07T21:53:10.794Z,21.40
2022-12-07T21:55:40.473Z,21.38
2022-12-07T21:58:06.975Z,21.36
2022-12-07T22:00:33.276Z,21.36
2022-12-07T22:02:59.662Z,21.34
2022-12-07T22:05:26.011Z,21.33
2022-12-07T22:07:52.395Z,21.33
2022-12-07T22:10:27.991Z,21.31
2022-12-07T22:12:57.472Z,21.32
2022-12-07T22:15:23.830Z,21.33
2022-12-07T22:17:50.305Z,21.33
2022-12-07T22:20:16.948Z,21.34
2022-12-07T22:22:43.277Z,21.34
2022-12-07T22:25:09.928Z,21.33
2022-12-07T22:27:36.242Z,21.33
2022-12-07T22:30:02.556Z,21.31
2022-12-07T22:35:15.317Z,21.30
2022-12-07T22:37:41.633Z,21.27
2022-12-07T22:40:08.042Z,21.30
2022-12-07T22:42:34.370Z,21.31
2022-12-07T22:45:00.829Z,21.31
2022-12-07T22:47:27.308Z,21.28
2022-12-07T22:49:53.662Z,21.28
2022-12-07T22:52:19.986Z,21.28
2022-12-07T22:54:46.325Z,21.27
2022-12-07T22:57:13.968Z,21.27
2022-12-07T22:59:40.388Z,21.28
2022-12-07T23:02:06.708Z,21.28
2022-12-07T23:04:33.078Z,21.27
2022-12-07T23:06:59.483Z,21.27
2022-12-07T23:09:25.814Z,21.26
2022-12-07T23:12:10.885Z,21.26
2022-12-07T23:14:37.217Z,21.24
2022-12-07T23:17:03.579Z,21.24
2022-12-07T23:19:30.055Z,21.23
2022-12-07T23:21:56.372Z,21.21
2022-12-07T23:24:22.702Z,21.19
2022-12-07T23:26:49.216Z,21.21
2022-12-07T23:29:17.940Z,21.21
2022-12-07T23:31:45.009Z,21.22
2022-12-07T23:34:11.400Z,21.21
2022-12-07T23:36:37.721Z,21.22
2022-12-07T23:39:04.044Z,21.21
2022-12-07T23:41:30.432Z,21.23
2022-12-07T23:43:57.417Z,21.21
2022-12-07T23:46:24.799Z,21.21
2022-12-07T23:48:51.326Z,21.21
2022-12-07T23:51:17.646Z,21.21
2022-12-07T23:53:44.452Z,21.20
2022-12-07T23:56:17.809Z,21.18
2022-12-07T23:58:44.124Z,21.18
